Buffalo, WY

8:24 PM MDT on August 27, 2014 (GMT -0600)
Esponda Ranch | Change Station
CLOSE
Current Station
Personal Weather Station
Location: Buffalo, WY
Elevation: 4665 ft
Nearby Weather Stations

Elev 4665 ft 44.32 °N, 106.67 °W | Updated 4 minutes ago

Scattered Clouds
Scattered Clouds
60.9 °F
Feels Like 60.9 °F
N
3.0
Wind Variable Wind from SE
Gusts 11.0 mph

Today
High -- | Low -- °F
--% Chance of Precip.
Yesterday
High -- | Low -- °F
Precip. -- in
6:23 AM 7:51 PM
Waxing Crescent, 6% visible
Pressure 30.04 in
Visibility 10.0 miles
Clouds Few 6500 ft
Scattered Clouds 10000 ft
Dew Point 56 °F
Humidity 85%
Rainfall 0.05 in
Snow Depth Not available.
UV 0 out of 12
Pollen 8.30 out of 12
Air Quality Not available.
Flu Activity Not available.
METAR KBYG 280153Z AUTO 19015KT 10SM FEW065 SCT100 16/13 A3015 RMK AO2 RAE34 SLP170 P0001 T01560133

More Conditions Fewer Conditions

Pressure 30.04 in
Visibility 10.0 miles
Clouds Few 6500 ft
Scattered Clouds 10000 ft
Dew Point 56 °F
Humidity 85%
Rainfall 0.05 in
Snow Depth Not available.
UV 0 out of 12
Pollen 8.30 out of 12
Air Quality Not available.
Flu Activity Not available.
METAR KBYG 280153Z AUTO 19015KT 10SM FEW065 SCT100 16/13 A3015 RMK AO2 RAE34 SLP170 P0001 T01560133

More Conditions Fewer Conditions

10-Day Weather Forecast

Almanac

Astronomy

Aug. 27, 2014 Rise Set
Actual Time 6:23 AM MDT 7:51 PM MDT
Civil Twilight 5:53 AM MDT 8:22 PM MDT
Nautical Twilight 5:16 AM MDT 8:58 PM MDT
Astronomical Twilight 4:37 AM MDT 9:37 PM MDT
Moon 8:28 AM MDT (8/27) 8:38 PM MDT (8/27)
Length of Visible Light 14h 28m
Length of Day
13h 27m
Tomorrow will be 2m 53s shorter.
Waxing Crescent, 6% of the Moon is Illuminated
Today
Waxing Crescent
Sep 2
First Quarter
Sep 8
Full
Sep 15
Last Quarter
Sep 24
New

Today's Extremes

State Highs State Lows

Community

WunderPhotos

Upload Photos

1,747,872 photos uploaded!

Nearby

Snow Depth

Station Depth Elevation
Bear Trap Meadow 0 in 8200 ft
Middle Powder 0 in 7760 ft
Casper Mountain 0 in 7850 ft
Owl Creek 0 in 8975 ft
Marquette 0 in 8760 ft

Earthquake Activity

City Distance Mag. Time & Date
No recent earthquake activity has been reported nearby.
Minimum magnitude displayed is 2.5.

Coastal Water Temperatures

Place Temperature
No Stations Reporting

Nearby Weather Stations